sensor_id;sensor_type;location;lat;lon;timestamp;temperature;humidity
9219;DHT22;4644;48.858;9.184;2022-09-21T00:01:08;7.50;99.90
9219;DHT22;4644;48.858;9.184;2022-09-21T00:03:36;7.50;99.90
9219;DHT22;4644;48.858;9.184;2022-09-21T00:06:04;7.50;99.90
9219;DHT22;4644;48.858;9.184;2022-09-21T00:08:31;7.50;99.90
9219;DHT22;4644;48.858;9.184;2022-09-21T00:10:58;7.50;99.90
9219;DHT22;4644;48.858;9.184;2022-09-21T00:13:26;7.40;99.90
9219;DHT22;4644;48.858;9.184;2022-09-21T00:15:53;7.40;99.90
9219;DHT22;4644;48.858;9.184;2022-09-21T00:18:22;7.40;99.90
9219;DHT22;4644;48.858;9.184;2022-09-21T00:20:49;7.40;99.90
9219;DHT22;4644;48.858;9.184;2022-09-21T00:23:17;7.40;99.90
9219;DHT22;4644;48.858;9.184;2022-09-21T00:25:44;7.40;99.90
9219;DHT22;4644;48.858;9.184;2022-09-21T00:28:11;7.40;99.90
9219;DHT22;4644;48.858;9.184;2022-09-21T00:30:38;7.40;99.90
9219;DHT22;4644;48.858;9.184;2022-09-21T00:33:05;7.30;99.90
9219;DHT22;4644;48.858;9.184;2022-09-21T00:35:34;7.30;99.90
9219;DHT22;4644;48.858;9.184;2022-09-21T00:38:01;7.20;99.90
9219;DHT22;4644;48.858;9.184;2022-09-21T00:40:28;7.20;99.90
9219;DHT22;4644;48.858;9.184;2022-09-21T00:43:10;7.20;99.90
9219;DHT22;4644;48.858;9.184;2022-09-21T00:45:38;7.20;99.90
9219;DHT22;4644;48.858;9.184;2022-09-21T00:48:05;7.20;99.90
9219;DHT22;4644;48.858;9.184;2022-09-21T00:50:34;7.10;99.90
9219;DHT22;4644;48.858;9.184;2022-09-21T00:53:03;7.10;99.90
9219;DHT22;4644;48.858;9.184;2022-09-21T00:55:33;7.10;99.90
9219;DHT22;4644;48.858;9.184;2022-09-21T00:58:06;7.00;99.90
9219;DHT22;4644;48.858;9.184;2022-09-21T01:00:34;7.00;99.90
9219;DHT22;4644;48.858;9.184;2022-09-21T01:03:02;7.00;99.90
9219;DHT22;4644;48.858;9.184;2022-09-21T01:05:29;7.00;99.90
9219;DHT22;4644;48.858;9.184;2022-09-21T01:08:01;6.90;99.90
9219;DHT22;4644;48.858;9.184;2022-09-21T01:10:35;6.90;99.90
9219;DHT22;4644;48.858;9.184;2022-09-21T01:13:12;6.90;99.90
9219;DHT22;4644;48.858;9.184;2022-09-21T01:15:48;6.90;99.90
9219;DHT22;4644;48.858;9.184;2022-09-21T01:18:28;6.90;99.90
9219;DHT22;4644;48.858;9.184;2022-09-21T01:21:12;6.90;99.90
9219;DHT22;4644;48.858;9.184;2022-09-21T01:27:18;6.90;99.90
9219;DHT22;4644;48.858;9.184;2022-09-21T01:29:53;6.90;99.90
9219;DHT22;4644;48.858;9.184;2022-09-21T01:32:24;6.80;99.90
9219;DHT22;4644;48.858;9.184;2022-09-21T01:34:55;6.90;99.90
9219;DHT22;4644;48.858;9.184;2022-09-21T01:37:25;6.90;99.90
9219;DHT22;4644;48.858;9.184;2022-09-21T01:40:01;6.80;99.90
9219;DHT22;4644;48.858;9.184;2022-09-21T01:42:31;6.70;99.90
9219;DHT22;4644;48.858;9.184;2022-09-21T01:45:03;6.70;99.90
9219;DHT22;4644;48.858;9.184;2022-09-21T01:47:32;6.70;99.90
9219;DHT22;4644;48.858;9.184;2022-09-21T01:50:05;6.70;99.90
9219;DHT22;4644;48.858;9.184;2022-09-21T01:52:38;6.70;99.90
9219;DHT22;4644;48.858;9.184;2022-09-21T01:55:09;6.70;99.90
9219;DHT22;4644;48.858;9.184;2022-09-21T01:57:40;6.60;99.90
9219;DHT22;4644;48.858;9.184;2022-09-21T02:00:11;6.60;99.90
9219;DHT22;4644;48.858;9.184;2022-09-21T02:02:41;6.60;99.90
9219;DHT22;4644;48.858;9.184;2022-09-21T02:05:10;6.60;99.90
9219;DHT22;4644;48.858;9.184;2022-09-21T02:07:38;6.60;99.90
9219;DHT22;4644;48.858;9.184;2022-09-21T02:10:07;6.60;99.90
9219;DHT22;4644;48.858;9.184;2022-09-21T02:12:35;6.50;99.90
9219;DHT22;4644;48.858;9.184;2022-09-21T02:15:03;6.60;99.90
9219;DHT22;4644;48.858;9.184;2022-09-21T02:17:38;6.50;99.90
9219;DHT22;4644;48.858;9.184;2022-09-21T02:20:17;6.50;99.90
9219;DHT22;4644;48.858;9.184;2022-09-21T02:22:56;6.50;99.90
9219;DHT22;4644;48.858;9.184;2022-09-21T02:25:32;6.50;99.90
9219;DHT22;4644;48.858;9.184;2022-09-21T02:28:05;6.50;99.90
9219;DHT22;4644;48.858;9.184;2022-09-21T02:30:34;6.50;99.90
9219;DHT22;4644;48.858;9.184;2022-09-21T02:33:11;6.50;99.90
9219;DHT22;4644;48.858;9.184;2022-09-21T02:35:43;6.40;99.90
9219;DHT22;4644;48.858;9.184;2022-09-21T02:38:19;6.40;99.90
9219;DHT22;4644;48.858;9.184;2022-09-21T02:40:53;6.40;99.90
9219;DHT22;4644;48.858;9.184;2022-09-21T02:43:25;6.40;99.90
9219;DHT22;4644;48.858;9.184;2022-09-21T02:46:06;6.30;99.90
9219;DHT22;4644;48.858;9.184;2022-09-21T02:48:42;6.30;99.90
9219;DHT22;4644;48.858;9.184;2022-09-21T02:51:15;6.30;99.90
9219;DHT22;4644;48.858;9.184;2022-09-21T02:53:44;6.30;99.90
9219;DHT22;4644;48.858;9.184;2022-09-21T02:56:15;6.40;99.90
9219;DHT22;4644;48.858;9.184;2022-09-21T02:58:45;6.30;99.90
9219;DHT22;4644;48.858;9.184;2022-09-21T03:01:15;6.30;99.90
9219;DHT22;4644;48.858;9.184;2022-09-21T03:03:44;6.30;99.90
9219;DHT22;4644;48.858;9.184;2022-09-21T03:06:12;6.30;99.90
9219;DHT22;4644;48.858;9.184;2022-09-21T03:08:39;6.20;99.90
9219;DHT22;4644;48.858;9.184;2022-09-21T03:11:07;6.20;99.90
9219;DHT22;4644;48.858;9.184;2022-09-21T03:13:35;6.20;99.90
9219;DHT22;4644;48.858;9.184;2022-09-21T03:16:04;6.20;99.90
9219;DHT22;4644;48.858;9.184;2022-09-21T03:18:32;6.20;99.90
9219;DHT22;4644;48.858;9.184;2022-09-21T03:21:02;6.10;99.90
9219;DHT22;4644;48.858;9.184;2022-09-21T03:23:31;6.10;99.90
9219;DHT22;4644;48.858;9.184;2022-09-21T03:25:58;6.00;99.90
9219;DHT22;4644;48.858;9.184;2022-09-21T03:28:25;6.00;99.90
9219;DHT22;4644;48.858;9.184;2022-09-21T03:30:52;6.00;99.90
9219;DHT22;4644;48.858;9.184;2022-09-21T03:33:19;6.00;99.90
9219;DHT22;4644;48.858;9.184;2022-09-21T03:35:47;6.00;99.90
9219;DHT22;4644;48.858;9.184;2022-09-21T03:38:16;6.00;99.90
9219;DHT22;4644;48.858;9.184;2022-09-21T03:40:44;6.00;99.90
9219;DHT22;4644;48.858;9.184;2022-09-21T03:43:15;5.90;99.90
9219;DHT22;4644;48.858;9.184;2022-09-21T03:45:43;6.00;99.90
9219;DHT22;4644;48.858;9.184;2022-09-21T03:48:11;6.10;99.90
9219;DHT22;4644;48.858;9.184;2022-09-21T03:50:39;6.10;99.90
9219;DHT22;4644;48.858;9.184;2022-09-21T03:53:07;6.00;99.90
9219;DHT22;4644;48.858;9.184;2022-09-21T03:55:36;6.00;99.90
9219;DHT22;4644;48.858;9.184;2022-09-21T03:58:04;6.00;99.90
9219;DHT22;4644;48.858;9.184;2022-09-21T04:00:32;6.00;99.90
9219;DHT22;4644;48.858;9.184;2022-09-21T04:02:59;5.90;99.90
9219;DHT22;4644;48.858;9.184;2022-09-21T04:05:27;6.00;99.90
9219;DHT22;4644;48.858;9.184;2022-09-21T04:07:54;6.00;99.90
9219;DHT22;4644;48.858;9.184;2022-09-21T04:10:23;5.90;99.90
9219;DHT22;4644;48.858;9.184;2022-09-21T04:13:00;5.90;99.90
9219;DHT22;4644;48.858;9.184;2022-09-21T04:15:28;5.80;99.90
9219;DHT22;4644;48.858;9.184;2022-09-21T04:17:56;5.80;99.90
9219;DHT22;4644;48.858;9.184;2022-09-21T04:20:24;5.80;99.90
9219;DHT22;4644;48.858;9.184;2022-09-21T04:22:51;5.70;99.90
9219;DHT22;4644;48.858;9.184;2022-09-21T04:25:18;5.70;99.90
9219;DHT22;4644;48.858;9.184;2022-09-21T04:27:45;5.70;99.90
9219;DHT22;4644;48.858;9.184;2022-09-21T04:30:17;5.70;99.90
9219;DHT22;4644;48.858;9.184;2022-09-21T04:32:45;5.70;99.90
9219;DHT22;4644;48.858;9.184;2022-09-21T04:35:12;5.60;99.90
9219;DHT22;4644;48.858;9.184;2022-09-21T04:37:39;5.60;99.90
9219;DHT22;4644;48.858;9.184;2022-09-21T04:40:07;5.60;99.90
9219;DHT22;4644;48.858;9.184;2022-09-21T04:42:34;5.60;99.90
9219;DHT22;4644;48.858;9.184;2022-09-21T04:45:02;5.60;99.90
9219;DHT22;4644;48.858;9.184;2022-09-21T04:47:31;5.70;99.90
9219;DHT22;4644;48.858;9.184;2022-09-21T04:49:58;5.60;99.90
9219;DHT22;4644;48.858;9.184;2022-09-21T04:52:27;5.60;99.90
9219;DHT22;4644;48.858;9.184;2022-09-21T04:54:54;5.60;99.90
9219;DHT22;4644;48.858;9.184;2022-09-21T04:57:21;5.60;99.90
9219;DHT22;4644;48.858;9.184;2022-09-21T04:59:49;5.60;99.90
9219;DHT22;4644;48.858;9.184;2022-09-21T05:02:16;5.60;99.90
9219;DHT22;4644;48.858;9.184;2022-09-21T05:04:44;5.50;99.90
9219;DHT22;4644;48.858;9.184;2022-09-21T05:07:11;5.60;99.90
9219;DHT22;4644;48.858;9.184;2022-09-21T05:09:38;5.50;99.90
9219;DHT22;4644;48.858;9.184;2022-09-21T05:12:23;5.60;99.90
9219;DHT22;4644;48.858;9.184;2022-09-21T05:14:50;5.50;99.90
9219;DHT22;4644;48.858;9.184;2022-09-21T05:17:17;5.60;99.90
9219;DHT22;4644;48.858;9.184;2022-09-21T05:19:48;5.60;99.90
9219;DHT22;4644;48.858;9.184;2022-09-21T05:22:16;5.60;99.90
9219;DHT22;4644;48.858;9.184;2022-09-21T05:24:43;5.60;99.90
9219;DHT22;4644;48.858;9.184;2022-09-21T05:27:11;5.60;99.90
9219;DHT22;4644;48.858;9.184;2022-09-21T05:29:39;5.60;99.90
9219;DHT22;4644;48.858;9.184;2022-09-21T05:32:12;5.60;99.90
9219;DHT22;4644;48.858;9.184;2022-09-21T05:34:52;5.60;99.90
9219;DHT22;4644;48.858;9.184;2022-09-21T05:37:39;5.60;99.90
9219;DHT22;4644;48.858;9.184;2022-09-21T05:40:11;5.60;99.90
9219;DHT22;4644;48.858;9.184;2022-09-21T05:42:39;5.60;99.90
9219;DHT22;4644;48.858;9.184;2022-09-21T05:45:08;5.70;99.90
9219;DHT22;4644;48.858;9.184;2022-09-21T05:47:42;5.70;99.90
9219;DHT22;4644;48.858;9.184;2022-09-21T05:50:24;5.70;99.90
9219;DHT22;4644;48.858;9.184;2022-09-21T05:53:00;5.80;99.90
9219;DHT22;4644;48.858;9.184;2022-09-21T05:55:38;5.80;99.90
9219;DHT22;4644;48.858;9.184;2022-09-21T05:58:16;5.80;99.90
9219;DHT22;4644;48.858;9.184;2022-09-21T06:00:51;5.90;99.90
9219;DHT22;4644;48.858;9.184;2022-09-21T06:03:26;5.90;99.90
9219;DHT22;4644;48.858;9.184;2022-09-21T06:05:56;6.00;99.90
9219;DHT22;4644;48.858;9.184;2022-09-21T06:08:23;6.10;99.90
9219;DHT22;4644;48.858;9.184;2022-09-21T06:10:51;6.10;99.90
9219;DHT22;4644;48.858;9.184;2022-09-21T06:13:18;6.10;99.90
9219;DHT22;4644;48.858;9.184;2022-09-21T06:15:46;6.20;99.90
9219;DHT22;4644;48.858;9.184;2022-09-21T06:18:13;6.30;99.90
9219;DHT22;4644;48.858;9.184;2022-09-21T06:20:40;6.40;99.90
9219;DHT22;4644;48.858;9.184;2022-09-21T06:23:10;6.50;99.90
9219;DHT22;4644;48.858;9.184;2022-09-21T06:25:38;6.60;99.90
9219;DHT22;4644;48.858;9.184;2022-09-21T06:28:06;6.60;99.90
9219;DHT22;4644;48.858;9.184;2022-09-21T06:30:33;6.70;99.90
9219;DHT22;4644;48.858;9.184;2022-09-21T06:33:02;6.80;99.90
9219;DHT22;4644;48.858;9.184;2022-09-21T06:35:30;7.00;99.90
9219;DHT22;4644;48.858;9.184;2022-09-21T06:37:58;7.20;99.90
9219;DHT22;4644;48.858;9.184;2022-09-21T06:40:27;7.40;99.90
9219;DHT22;4644;48.858;9.184;2022-09-21T06:42:55;7.60;99.90
9219;DHT22;4644;48.858;9.184;2022-09-21T06:45:27;8.00;99.90
9219;DHT22;4644;48.858;9.184;2022-09-21T06:47:54;8.30;99.90
9219;DHT22;4644;48.858;9.184;2022-09-21T06:50:22;8.50;99.90
9219;DHT22;4644;48.858;9.184;2022-09-21T06:52:51;8.80;99.90
9219;DHT22;4644;48.858;9.184;2022-09-21T06:55:18;9.00;99.90
9219;DHT22;4644;48.858;9.184;2022-09-21T06:57:52;9.20;99.90
9219;DHT22;4644;48.858;9.184;2022-09-21T07:00:21;9.50;99.90
9219;DHT22;4644;48.858;9.184;2022-09-21T07:02:48;9.70;99.90
9219;DHT22;4644;48.858;9.184;2022-09-21T07:05:15;10.00;99.90
9219;DHT22;4644;48.858;9.184;2022-09-21T07:07:44;10.40;99.90
9219;DHT22;4644;48.858;9.184;2022-09-21T07:10:11;10.50;99.90
9219;DHT22;4644;48.858;9.184;2022-09-21T07:12:38;10.80;99.90
9219;DHT22;4644;48.858;9.184;2022-09-21T07:15:08;10.90;99.90
9219;DHT22;4644;48.858;9.184;2022-09-21T07:17:37;11.10;99.90
9219;DHT22;4644;48.858;9.184;2022-09-21T07:20:06;11.20;99.90
9219;DHT22;4644;48.858;9.184;2022-09-21T07:22:34;11.30;99.90
9219;DHT22;4644;48.858;9.184;2022-09-21T07:25:01;11.30;99.90
9219;DHT22;4644;48.858;9.184;2022-09-21T07:27:30;11.40;99.90
9219;DHT22;4644;48.858;9.184;2022-09-21T07:29:57;11.60;99.90
9219;DHT22;4644;48.858;9.184;2022-09-21T07:32:27;12.00;99.90
9219;DHT22;4644;48.858;9.184;2022-09-21T07:34:55;12.10;99.90
9219;DHT22;4644;48.858;9.184;2022-09-21T07:37:22;12.30;99.90
9219;DHT22;4644;48.858;9.184;2022-09-21T07:39:50;12.50;99.90
9219;DHT22;4644;48.858;9.184;2022-09-21T07:42:17;12.60;99.90
9219;DHT22;4644;48.858;9.184;2022-09-21T07:44:46;12.70;99.90
9219;DHT22;4644;48.858;9.184;2022-09-21T07:47:14;12.70;99.90
9219;DHT22;4644;48.858;9.184;2022-09-21T07:49:42;12.70;99.90
9219;DHT22;4644;48.858;9.184;2022-09-21T07:52:11;12.70;99.90
9219;DHT22;4644;48.858;9.184;2022-09-21T07:54:38;12.70;99.90
9219;DHT22;4644;48.858;9.184;2022-09-21T07:57:05;12.90;99.90
9219;DHT22;4644;48.858;9.184;2022-09-21T07:59:49;13.00;99.90
9219;DHT22;4644;48.858;9.184;2022-09-21T08:02:16;13.30;99.90
9219;DHT22;4644;48.858;9.184;2022-09-21T08:04:44;13.30;99.90
9219;DHT22;4644;48.858;9.184;2022-09-21T08:07:12;13.40;99.90
9219;DHT22;4644;48.858;9.184;2022-09-21T08:09:39;13.50;99.90
9219;DHT22;4644;48.858;9.184;2022-09-21T08:12:07;13.70;99.90
9219;DHT22;4644;48.858;9.184;2022-09-21T08:14:35;13.70;99.90
9219;DHT22;4644;48.858;9.184;2022-09-21T08:17:02;13.50;99.90
9219;DHT22;4644;48.858;9.184;2022-09-21T08:19:32;13.50;99.90
9219;DHT22;4644;48.858;9.184;2022-09-21T08:22:02;13.40;99.90
9219;DHT22;4644;48.858;9.184;2022-09-21T08:24:29;13.40;99.90
9219;DHT22;4644;48.858;9.184;2022-09-21T08:26:57;13.40;99.90
9219;DHT22;4644;48.858;9.184;2022-09-21T08:29:25;13.50;99.90
9219;DHT22;4644;48.858;9.184;2022-09-21T08:31:52;13.60;99.90
9219;DHT22;4644;48.858;9.184;2022-09-21T08:34:19;13.70;99.90
9219;DHT22;4644;48.858;9.184;2022-09-21T08:36:47;13.90;99.90
9219;DHT22;4644;48.858;9.184;2022-09-21T08:39:16;14.00;99.90
9219;DHT22;4644;48.858;9.184;2022-09-21T08:42:09;14.00;99.90
9219;DHT22;4644;48.858;9.184;2022-09-21T08:44:40;14.00;99.90
9219;DHT22;4644;48.858;9.184;2022-09-21T08:47:12;14.10;99.90
9219;DHT22;4644;48.858;9.184;2022-09-21T08:49:48;14.10;99.90
9219;DHT22;4644;48.858;9.184;2022-09-21T08:52:18;14.20;99.90
9219;DHT22;4644;48.858;9.184;2022-09-21T08:54:54;14.10;99.90
9219;DHT22;4644;48.858;9.184;2022-09-21T08:59:51;14.20;99.90
9219;DHT22;4644;48.858;9.184;2022-09-21T09:02:38;14.20;99.90
9219;DHT22;4644;48.858;9.184;2022-09-21T09:05:20;14.10;99.90
9219;DHT22;4644;48.858;9.184;2022-09-21T09:08:04;14.10;99.90
9219;DHT22;4644;48.858;9.184;2022-09-21T09:10:38;14.10;99.90
9219;DHT22;4644;48.858;9.184;2022-09-21T09:13:24;14.00;99.90
9219;DHT22;4644;48.858;9.184;2022-09-21T09:16:00;14.00;99.90
9219;DHT22;4644;48.858;9.184;2022-09-21T09:18:37;13.90;99.90
9219;DHT22;4644;48.858;9.184;2022-09-21T09:21:11;13.90;99.90
9219;DHT22;4644;48.858;9.184;2022-09-21T09:23:44;13.90;99.90
9219;DHT22;4644;48.858;9.184;2022-09-21T09:26:17;13.90;99.90
9219;DHT22;4644;48.858;9.184;2022-09-21T09:28:49;13.90;99.90
9219;DHT22;4644;48.858;9.184;2022-09-21T09:31:20;13.90;99.90
9219;DHT22;4644;48.858;9.184;2022-09-21T09:33:54;13.90;99.90
9219;DHT22;4644;48.858;9.184;2022-09-21T09:36:27;13.90;99.90
9219;DHT22;4644;48.858;9.184;2022-09-21T09:39:00;14.00;99.90
9219;DHT22;4644;48.858;9.184;2022-09-21T09:41:57;14.00;99.90
9219;DHT22;4644;48.858;9.184;2022-09-21T09:44:37;14.10;99.90
9219;DHT22;4644;48.858;9.184;2022-09-21T09:47:19;14.20;99.90
9219;DHT22;4644;48.858;9.184;2022-09-21T09:49:58;14.10;99.90
9219;DHT22;4644;48.858;9.184;2022-09-21T09:52:26;14.20;99.90
9219;DHT22;4644;48.858;9.184;2022-09-21T09:54:53;14.30;99.90
9219;DHT22;4644;48.858;9.184;2022-09-21T09:57:27;14.30;99.90
9219;DHT22;4644;48.858;9.184;2022-09-21T09:59:58;14.30;99.90
9219;DHT22;4644;48.858;9.184;2022-09-21T10:02:27;14.50;99.90
9219;DHT22;4644;48.858;9.184;2022-09-21T10:04:55;14.40;99.90
9219;DHT22;4644;48.858;9.184;2022-09-21T10:07:36;14.50;99.90
9219;DHT22;4644;48.858;9.184;2022-09-21T10:13:11;14.60;99.90
9219;DHT22;4644;48.858;9.184;2022-09-21T10:15:42;14.70;99.90
9219;DHT22;4644;48.858;9.184;2022-09-21T10:18:17;14.70;99.90
9219;DHT22;4644;48.858;9.184;2022-09-21T10:20:56;14.60;99.90
9219;DHT22;4644;48.858;9.184;2022-09-21T10:23:24;14.70;99.90
9219;DHT22;4644;48.858;9.184;2022-09-21T10:25:54;14.80;99.90
9219;DHT22;4644;48.858;9.184;2022-09-21T10:28:23;14.90;99.90
9219;DHT22;4644;48.858;9.184;2022-09-21T10:31:11;15.10;99.90
9219;DHT22;4644;48.858;9.184;2022-09-21T10:33:50;15.30;99.90
9219;DHT22;4644;48.858;9.184;2022-09-21T10:36:31;15.40;99.90
9219;DHT22;4644;48.858;9.184;2022-09-21T10:39:17;15.60;99.90
9219;DHT22;4644;48.858;9.184;2022-09-21T10:41:48;15.70;99.90
9219;DHT22;4644;48.858;9.184;2022-09-21T10:44:18;15.70;99.90
9219;DHT22;4644;48.858;9.184;2022-09-21T10:46:48;15.70;99.90
9219;DHT22;4644;48.858;9.184;2022-09-21T10:49:21;15.70;99.90
9219;DHT22;4644;48.858;9.184;2022-09-21T10:51:51;15.80;99.90
9219;DHT22;4644;48.858;9.184;2022-09-21T10:54:22;16.00;99.90
9219;DHT22;4644;48.858;9.184;2022-09-21T10:56:53;16.10;99.90
9219;DHT22;4644;48.858;9.184;2022-09-21T10:59:25;15.90;99.90
9219;DHT22;4644;48.858;9.184;2022-09-21T11:01:56;15.80;99.90
9219;DHT22;4644;48.858;9.184;2022-09-21T11:04:29;15.80;99.90
9219;DHT22;4644;48.858;9.184;2022-09-21T11:07:03;15.90;99.90
9219;DHT22;4644;48.858;9.184;2022-09-21T11:09:36;15.60;99.90
9219;DHT22;4644;48.858;9.184;2022-09-21T11:12:14;15.40;99.90
9219;DHT22;4644;48.858;9.184;2022-09-21T11:14:50;15.20;99.90
9219;DHT22;4644;48.858;9.184;2022-09-21T11:17:29;15.20;99.90
9219;DHT22;4644;48.858;9.184;2022-09-21T11:20:08;15.30;99.90
9219;DHT22;4644;48.858;9.184;2022-09-21T11:22:44;15.40;99.90
9219;DHT22;4644;48.858;9.184;2022-09-21T11:25:25;15.60;99.90
9219;DHT22;4644;48.858;9.184;2022-09-21T11:28:00;15.80;99.90
9219;DHT22;4644;48.858;9.184;2022-09-21T11:30:38;15.70;99.90
9219;DHT22;4644;48.858;9.184;2022-09-21T11:33:19;15.90;99.90
9219;DHT22;4644;48.858;9.184;2022-09-21T11:35:55;16.10;99.90
9219;DHT22;4644;48.858;9.184;2022-09-21T11:38:36;16.40;99.90
9219;DHT22;4644;48.858;9.184;2022-09-21T11:41:31;16.60;99.90
9219;DHT22;4644;48.858;9.184;2022-09-21T11:44:28;16.60;99.90
9219;DHT22;4644;48.858;9.184;2022-09-21T11:47:05;16.80;99.90
9219;DHT22;4644;48.858;9.184;2022-09-21T11:49:52;17.00;99.90
9219;DHT22;4644;48.858;9.184;2022-09-21T11:52:37;17.10;99.90
9219;DHT22;4644;48.858;9.184;2022-09-21T11:55:34;17.20;99.90
9219;DHT22;4644;48.858;9.184;2022-09-21T11:58:11;17.20;99.90
9219;DHT22;4644;48.858;9.184;2022-09-21T12:00:55;17.10;99.90
9219;DHT22;4644;48.858;9.184;2022-09-21T12:03:48;17.00;99.90
9219;DHT22;4644;48.858;9.184;2022-09-21T12:06:32;17.00;99.90
9219;DHT22;4644;48.858;9.184;2022-09-21T12:12:18;16.90;99.90
9219;DHT22;4644;48.858;9.184;2022-09-21T12:14:51;16.80;99.90
9219;DHT22;4644;48.858;9.184;2022-09-21T12:17:28;16.80;99.90
9219;DHT22;4644;48.858;9.184;2022-09-21T12:20:04;16.70;99.90
9219;DHT22;4644;48.858;9.184;2022-09-21T12:22:37;16.60;99.90
9219;DHT22;4644;48.858;9.184;2022-09-21T12:25:12;16.70;99.90
9219;DHT22;4644;48.858;9.184;2022-09-21T12:27:47;16.60;99.90
9219;DHT22;4644;48.858;9.184;2022-09-21T12:30:17;16.60;99.30
9219;DHT22;4644;48.858;9.184;2022-09-21T12:32:51;16.50;99.90
9219;DHT22;4644;48.858;9.184;2022-09-21T12:35:27;16.40;99.90
9219;DHT22;4644;48.858;9.184;2022-09-21T12:38:02;16.40;99.90
9219;DHT22;4644;48.858;9.184;2022-09-21T12:40:36;16.30;99.90
9219;DHT22;4644;48.858;9.184;2022-09-21T12:43:19;16.20;99.90
9219;DHT22;4644;48.858;9.184;2022-09-21T12:45:51;16.10;99.90
9219;DHT22;4644;48.858;9.184;2022-09-21T12:48:25;16.10;99.90
9219;DHT22;4644;48.858;9.184;2022-09-21T12:51:01;16.20;99.90
9219;DHT22;4644;48.858;9.184;2022-09-21T12:53:32;16.40;99.90
9219;DHT22;4644;48.858;9.184;2022-09-21T12:56:06;16.50;99.90
9219;DHT22;4644;48.858;9.184;2022-09-21T12:58:55;16.60;99.90
9219;DHT22;4644;48.858;9.184;2022-09-21T13:01:30;16.60;99.90
9219;DHT22;4644;48.858;9.184;2022-09-21T13:04:17;16.50;99.90
9219;DHT22;4644;48.858;9.184;2022-09-21T13:09:45;16.20;99.90
9219;DHT22;4644;48.858;9.184;2022-09-21T13:12:16;16.00;99.90
9219;DHT22;4644;48.858;9.184;2022-09-21T13:14:46;15.90;99.90
9219;DHT22;4644;48.858;9.184;2022-09-21T13:17:20;16.00;99.90
9219;DHT22;4644;48.858;9.184;2022-09-21T13:19:58;16.10;99.90
9219;DHT22;4644;48.858;9.184;2022-09-21T13:22:30;16.10;99.90
9219;DHT22;4644;48.858;9.184;2022-09-21T13:25:00;16.10;99.30
9219;DHT22;4644;48.858;9.184;2022-09-21T13:27:57;16.10;99.90
9219;DHT22;4644;48.858;9.184;2022-09-21T13:30:43;16.10;99.50
9219;DHT22;4644;48.858;9.184;2022-09-21T13:33:32;16.10;99.40
9219;DHT22;4644;48.858;9.184;2022-09-21T13:36:29;16.20;99.10
9219;DHT22;4644;48.858;9.184;2022-09-21T13:39:11;16.20;98.80
9219;DHT22;4644;48.858;9.184;2022-09-21T13:41:39;16.30;99.40
9219;DHT22;4644;48.858;9.184;2022-09-21T13:44:40;16.30;98.70
9219;DHT22;4644;48.858;9.184;2022-09-21T13:47:08;16.40;98.90
9219;DHT22;4644;48.858;9.184;2022-09-21T13:49:42;16.30;98.10
9219;DHT22;4644;48.858;9.184;2022-09-21T13:52:25;16.20;97.80
9219;DHT22;4644;48.858;9.184;2022-09-21T13:54:56;16.20;96.90
9219;DHT22;4644;48.858;9.184;2022-09-21T13:57:29;16.20;97.70
9219;DHT22;4644;48.858;9.184;2022-09-21T14:00:22;16.20;97.50
9219;DHT22;4644;48.858;9.184;2022-09-21T14:02:56;16.30;97.10
9219;DHT22;4644;48.858;9.184;2022-09-21T14:05:30;16.20;96.20
9219;DHT22;4644;48.858;9.184;2022-09-21T14:08:00;16.20;97.80
9219;DHT22;4644;48.858;9.184;2022-09-21T14:10:31;16.20;99.10
9219;DHT22;4644;48.858;9.184;2022-09-21T14:13:01;16.20;97.40
9219;DHT22;4644;48.858;9.184;2022-09-21T14:15:37;16.20;97.00
9219;DHT22;4644;48.858;9.184;2022-09-21T14:21:18;16.20;96.80
9219;DHT22;4644;48.858;9.184;2022-09-21T14:24:07;16.30;96.90
9219;DHT22;4644;48.858;9.184;2022-09-21T14:26:59;16.30;96.40
9219;DHT22;4644;48.858;9.184;2022-09-21T14:29:32;16.20;95.00
9219;DHT22;4644;48.858;9.184;2022-09-21T14:32:21;16.20;95.90
9219;DHT22;4644;48.858;9.184;2022-09-21T14:34:50;16.20;95.40
9219;DHT22;4644;48.858;9.184;2022-09-21T14:37:29;16.10;96.50
9219;DHT22;4644;48.858;9.184;2022-09-21T14:39:58;16.10;94.50
9219;DHT22;4644;48.858;9.184;2022-09-21T14:42:28;16.10;95.60
9219;DHT22;4644;48.858;9.184;2022-09-21T14:44:57;16.00;93.20
9219;DHT22;4644;48.858;9.184;2022-09-21T14:47:45;16.00;94.60
9219;DHT22;4644;48.858;9.184;2022-09-21T14:50:34;15.90;94.60
9219;DHT22;4644;48.858;9.184;2022-09-21T14:53:28;15.90;93.70
9219;DHT22;4644;48.858;9.184;2022-09-21T14:56:21;15.90;94.20
9219;DHT22;4644;48.858;9.184;2022-09-21T14:59:03;15.90;93.90
9219;DHT22;4644;48.858;9.184;2022-09-21T15:01:37;15.90;93.60
9219;DHT22;4644;48.858;9.184;2022-09-21T15:04:30;16.00;93.70
9219;DHT22;4644;48.858;9.184;2022-09-21T15:07:06;15.90;94.20
9219;DHT22;4644;48.858;9.184;2022-09-21T15:10:10;15.90;93.20
9219;DHT22;4644;48.858;9.184;2022-09-21T15:13:01;15.80;92.90
9219;DHT22;4644;48.858;9.184;2022-09-21T15:15:39;15.80;93.00
9219;DHT22;4644;48.858;9.184;2022-09-21T15:18:15;15.80;93.10
9219;DHT22;4644;48.858;9.184;2022-09-21T15:20:54;15.90;91.90
9219;DHT22;4644;48.858;9.184;2022-09-21T15:23:25;15.80;92.90
9219;DHT22;4644;48.858;9.184;2022-09-21T15:25:55;15.80;92.80
9219;DHT22;4644;48.858;9.184;2022-09-21T15:28:41;15.90;95.20
9219;DHT22;4644;48.858;9.184;2022-09-21T15:31:15;15.90;92.90
9219;DHT22;4644;48.858;9.184;2022-09-21T15:33:44;15.90;92.80
9219;DHT22;4644;48.858;9.184;2022-09-21T15:36:18;15.90;93.40
9219;DHT22;4644;48.858;9.184;2022-09-21T15:38:47;15.80;93.60
9219;DHT22;4644;48.858;9.184;2022-09-21T15:41:36;15.70;93.90
9219;DHT22;4644;48.858;9.184;2022-09-21T15:44:16;15.70;92.70
9219;DHT22;4644;48.858;9.184;2022-09-21T15:46:48;15.70;92.00
9219;DHT22;4644;48.858;9.184;2022-09-21T15:49:20;15.70;92.80
9219;DHT22;4644;48.858;9.184;2022-09-21T15:51:50;15.70;93.40
9219;DHT22;4644;48.858;9.184;2022-09-21T15:54:27;15.70;92.80
9219;DHT22;4644;48.858;9.184;2022-09-21T15:56:57;15.60;94.30
9219;DHT22;4644;48.858;9.184;2022-09-21T15:59:25;15.60;95.30
9219;DHT22;4644;48.858;9.184;2022-09-21T16:01:57;15.60;95.70
9219;DHT22;4644;48.858;9.184;2022-09-21T16:04:27;15.50;95.60
9219;DHT22;4644;48.858;9.184;2022-09-21T16:06:59;15.50;96.00
9219;DHT22;4644;48.858;9.184;2022-09-21T16:09:40;15.50;96.10
9219;DHT22;4644;48.858;9.184;2022-09-21T16:12:31;15.40;96.90
9219;DHT22;4644;48.858;9.184;2022-09-21T16:15:07;15.40;96.60
9219;DHT22;4644;48.858;9.184;2022-09-21T16:17:38;15.40;97.10
9219;DHT22;4644;48.858;9.184;2022-09-21T16:20:17;15.30;95.60
9219;DHT22;4644;48.858;9.184;2022-09-21T16:22:46;15.20;96.40
9219;DHT22;4644;48.858;9.184;2022-09-21T16:25:25;15.20;96.20
9219;DHT22;4644;48.858;9.184;2022-09-21T16:27:56;15.10;96.00
9219;DHT22;4644;48.858;9.184;2022-09-21T16:30:40;15.10;96.10
9219;DHT22;4644;48.858;9.184;2022-09-21T16:33:36;15.10;96.40
9219;DHT22;4644;48.858;9.184;2022-09-21T16:36:33;15.00;96.90
9219;DHT22;4644;48.858;9.184;2022-09-21T16:39:01;15.00;96.80
9219;DHT22;4644;48.858;9.184;2022-09-21T16:41:34;14.90;97.80
9219;DHT22;4644;48.858;9.184;2022-09-21T16:44:04;14.80;96.90
9219;DHT22;4644;48.858;9.184;2022-09-21T16:46:34;14.80;97.40
9219;DHT22;4644;48.858;9.184;2022-09-21T16:49:07;14.70;97.40
9219;DHT22;4644;48.858;9.184;2022-09-21T16:51:38;14.70;97.10
9219;DHT22;4644;48.858;9.184;2022-09-21T16:54:05;14.70;96.20
9219;DHT22;4644;48.858;9.184;2022-09-21T16:56:33;14.70;96.80
9219;DHT22;4644;48.858;9.184;2022-09-21T16:59:00;14.60;95.80
9219;DHT22;4644;48.858;9.184;2022-09-21T17:01:37;14.60;96.70
9219;DHT22;4644;48.858;9.184;2022-09-21T17:04:06;14.50;96.30
9219;DHT22;4644;48.858;9.184;2022-09-21T17:06:35;14.50;96.30